Time;durP1;ratioP1;P1;durP2;ratioP2;P2;SDS_P1;SDS_P2;PMS_P1;PMS_P2;Temp;Humidity;BMP_temperature;BMP_pressure;BME280_temperature;BME280_humidity;BME280_pressure;Samples;Min_cycle;Max_cycle;Signal;HPM_P1;HPM_P2
2021/07/16 00:02:23;;;;;;;33.13;19.70;;;;;;;20.14;79.46;100871.66;5032034;28;20211;-67
2021/07/16 00:04:51;;;;;;;33.10;19.27;;;;;;;20.11;79.57;100878.22;5033114;28;20279;-68
2021/07/16 00:07:18;;;;;;;32.57;20.07;;;;;;;20.08;79.84;100875.81;5022293;28;20209;-68
2021/07/16 00:09:44;;;;;;;31.63;19.20;;;;;;;20.06;80.05;100880.56;5028794;28;20279;-68
2021/07/16 00:12:11;;;;;;;36.33;18.97;;;;;;;20.05;80.14;100879.72;5033570;28;20209;-68
2021/07/16 00:14:38;;;;;;;33.20;20.17;;;;;;;20.04;80.47;100888.81;5029515;28;20236;-68
2021/07/16 00:17:05;;;;;;;31.83;20.30;;;;;;;20.01;80.51;100886.41;5029738;28;20358;-68
2021/07/16 00:19:31;;;;;;;34.93;20.40;;;;;;;20.01;80.88;100886.41;5027333;28;20206;-68
2021/07/16 00:21:59;;;;;;;41.47;21.33;;;;;;;20.00;80.75;100887.41;5031360;28;20215;-68
2021/07/16 00:24:26;;;;;;;40.40;19.53;;;;;;;19.99;80.76;100890.28;5033411;28;20233;-68
2021/07/16 00:26:52;;;;;;;34.97;20.23;;;;;;;19.96;80.94;100886.00;5022515;28;20252;-68
2021/07/16 00:29:19;;;;;;;38.60;21.00;;;;;;;19.94;81.01;100887.16;5027602;28;20285;-68
2021/07/16 00:31:45;;;;;;;37.87;19.50;;;;;;;19.91;81.22;100890.16;5031565;28;20219;-67
2021/07/16 00:34:12;;;;;;;36.10;19.40;;;;;;;19.87;81.54;100884.22;5033142;28;20241;-68
2021/07/16 00:36:38;;;;;;;39.07;21.20;;;;;;;19.86;81.36;100889.78;5028451;28;20208;-67
2021/07/16 00:39:06;;;;;;;33.87;18.60;;;;;;;19.84;81.77;100894.50;5033023;28;20734;-68
2021/07/16 00:41:33;;;;;;;28.87;18.93;;;;;;;19.83;81.74;100896.34;5032777;28;20236;-67
2021/07/16 00:43:59;;;;;;;31.27;18.93;;;;;;;19.82;82.01;100891.09;5032721;28;20739;-68
2021/07/16 00:46:26;;;;;;;37.40;18.93;;;;;;;19.79;81.99;100888.69;5031237;28;20669;-67
2021/07/16 00:48:52;;;;;;;38.90;20.40;;;;;;;19.77;82.18;100886.97;5032102;28;20211;-67
2021/07/16 00:51:19;;;;;;;32.83;19.20;;;;;;;19.75;82.18;100891.69;5032903;28;20234;-67
2021/07/16 00:56:18;;;;;;;31.70;19.23;;;;;;;19.70;82.49;100894.00;5096370;23;20232;-66
2021/07/16 00:58:44;;;;;;;34.70;18.90;;;;;;;19.70;82.61;100893.16;5050371;28;20250;-66
2021/07/16 01:01:11;;;;;;;29.90;18.87;;;;;;;19.68;82.72;100895.16;5050111;28;20213;-66
2021/07/16 01:03:38;;;;;;;31.47;18.80;;;;;;;19.65;82.76;100893.59;5051421;28;20205;-65
2021/07/16 01:06:04;;;;;;;31.63;19.50;;;;;;;19.64;83.03;100894.59;5046141;28;20230;-66
2021/07/16 01:08:31;;;;;;;28.40;18.47;;;;;;;19.64;83.13;100896.44;5044724;28;20673;-66
2021/07/16 01:10:58;;;;;;;25.60;18.30;;;;;;;19.62;82.96;100898.44;5033804;28;20717;-66
2021/07/16 01:13:26;;;;;;;30.50;18.37;;;;;;;19.59;83.26;100896.03;5032179;28;20215;-66
2021/07/16 01:15:55;;;;;;;29.87;18.23;;;;;;;19.56;83.46;100899.88;5044292;28;20229;-66
2021/07/16 01:18:22;;;;;;;26.23;17.17;;;;;;;19.53;83.43;100896.59;5051173;28;20298;-66
2021/07/16 01:20:49;;;;;;;27.73;18.27;;;;;;;19.50;83.67;100896.94;5033531;28;20207;-65
2021/07/16 01:23:18;;;;;;;29.07;17.63;;;;;;;19.48;83.78;100907.00;5038673;28;20691;-66
2021/07/16 01:25:45;;;;;;;30.43;17.57;;;;;;;19.49;83.93;100911.41;5035760;28;20234;-66
2021/07/16 01:28:12;;;;;;;28.77;17.57;;;;;;;19.47;84.14;100911.56;5040957;28;20211;-66
2021/07/16 01:30:39;;;;;;;24.83;17.37;;;;;;;19.46;83.98;100906.28;5050670;28;20212;-66
2021/07/16 01:33:06;;;;;;;26.33;17.17;;;;;;;19.44;84.17;100901.03;5045805;28;20222;-66
2021/07/16 01:35:33;;;;;;;29.27;18.07;;;;;;;19.41;83.96;100893.22;5051968;28;20595;-66
2021/07/16 01:38:01;;;;;;;29.03;18.70;;;;;;;19.38;84.28;100907.88;5038784;28;20222;-66
2021/07/16 01:40:35;;;;;;;24.77;17.53;;;;;;;19.37;84.27;100916.13;5037206;28;20577;-65
2021/07/16 01:43:03;;;;;;;21.97;16.77;;;;;;;19.35;84.30;100918.13;5051716;28;20233;-66
2021/07/16 01:45:34;;;;;;;23.80;17.33;;;;;;;19.33;84.39;100921.00;5047016;28;20217;-65
2021/07/16 01:48:03;;;;;;;22.67;16.47;;;;;;;19.30;84.46;100921.28;5050209;28;20724;-66
2021/07/16 01:50:30;;;;;;;28.17;17.93;;;;;;;19.29;84.52;100926.81;5037707;28;20669;-66
2021/07/16 01:52:58;;;;;;;27.30;18.07;;;;;;;19.27;84.82;100926.13;5041736;28;20214;-66
2021/07/16 01:55:26;;;;;;;21.33;17.73;;;;;;;19.25;84.85;100923.56;5031799;28;20234;-66
2021/07/16 01:57:55;;;;;;;29.63;18.80;;;;;;;19.24;84.82;100924.56;5033993;28;20230;-66
2021/07/16 02:00:24;;;;;;;28.20;17.87;;;;;;;19.24;84.85;100927.25;5031872;28;20218;-66
2021/07/16 02:02:52;;;;;;;28.07;17.63;;;;;;;19.22;84.97;100920.28;5030864;28;20205;-66
2021/07/16 02:05:20;;;;;;;28.80;18.23;;;;;;;19.20;85.02;100924.97;5031951;28;20357;-66
2021/07/16 02:07:48;;;;;;;24.17;16.63;;;;;;;19.19;85.12;100917.88;5031017;28;20210;-66
2021/07/16 02:10:14;;;;;;;30.90;18.40;;;;;;;19.16;85.12;100935.25;5032497;28;20663;-66
2021/07/16 02:12:41;;;;;;;22.87;16.87;;;;;;;19.15;85.14;100930.00;5038267;28;20228;-66
2021/07/16 02:15:14;;;;;;;21.97;17.03;;;;;;;19.13;85.34;100930.13;5044527;28;20226;-66
2021/07/16 02:17:40;;;;;;;22.47;16.17;;;;;;;19.11;85.56;100933.97;5050250;28;20232;-67
2021/07/16 02:20:25;;;;;;;26.43;16.93;;;;;;;19.09;85.31;100928.72;5037587;28;20210;-66
2021/07/16 02:22:52;;;;;;;22.80;15.90;;;;;;;19.09;85.42;100934.13;5037381;28;20204;-66
2021/07/16 02:25:20;;;;;;;23.47;16.67;;;;;;;19.08;85.48;100940.50;5046135;28;20612;-66
2021/07/16 02:27:47;;;;;;;23.73;15.60;;;;;;;19.05;85.37;100935.41;5042982;28;20203;-67
2021/07/16 02:30:16;;;;;;;25.60;16.13;;;;;;;19.02;85.59;100930.28;5031091;28;20215;-66
2021/07/16 02:32:44;;;;;;;20.13;15.43;;;;;;;18.99;85.49;100926.00;5041038;28;20229;-66
2021/07/16 02:35:12;;;;;;;20.50;14.87;;;;;;;18.98;85.49;100934.28;5044196;28;20598;-66
2021/07/16 02:37:40;;;;;;;18.53;15.40;;;;;;;18.94;85.45;100927.47;5043440;28;20674;-67
2021/07/16 02:40:09;;;;;;;21.73;15.73;;;;;;;18.92;85.48;100930.31;5046081;28;20203;-66
2021/07/16 02:42:35;;;;;;;23.80;16.20;;;;;;;18.89;85.75;100930.59;5040337;28;20202;-66
2021/07/16 02:45:04;;;;;;;31.37;17.40;;;;;;;18.88;85.57;100933.44;5034676;28;20251;-66
2021/07/16 02:47:32;;;;;;;24.47;15.80;;;;;;;18.85;85.86;100931.88;5031109;28;20206;-66
2021/07/16 02:49:58;;;;;;;28.17;17.73;;;;;;;18.84;85.94;100934.69;5033887;28;20220;-66
2021/07/16 02:52:25;;;;;;;23.83;15.67;;;;;;;18.80;85.58;100939.56;5037864;28;20208;-66
2021/07/16 02:54:51;;;;;;;26.93;16.37;;;;;;;18.78;85.76;100940.69;5037119;28;20237;-66
2021/07/16 02:57:18;;;;;;;28.13;17.73;;;;;;;18.76;85.72;100937.28;5050624;28;20215;-66
2021/07/16 02:59:44;;;;;;;21.77;17.07;;;;;;;18.73;86.00;100938.41;5031796;28;20588;-66
2021/07/16 03:02:11;;;;;;;29.37;17.73;;;;;;;18.72;85.90;100939.41;5030411;28;20221;-67
2021/07/16 03:04:39;;;;;;;21.77;16.90;;;;;;;18.70;85.94;100942.25;5030136;28;20225;-66
2021/07/16 03:07:06;;;;;;;23.53;17.30;;;;;;;18.68;86.04;100943.38;5044711;28;20296;-66
2021/07/16 03:09:34;;;;;;;21.63;16.10;;;;;;;18.66;86.17;100953.44;5046021;28;20225;-67
2021/07/16 03:12:02;;;;;;;22.97;16.90;;;;;;;18.65;86.23;100954.44;5050421;28;20208;-66
2021/07/16 03:14:28;;;;;;;24.93;17.03;;;;;;;18.63;86.27;100957.28;5049945;28;20705;-66
2021/07/16 03:16:55;;;;;;;27.03;16.77;;;;;;;18.61;86.32;100955.75;5050328;28;20292;-66
2021/07/16 03:19:21;;;;;;;23.33;16.83;;;;;;;18.60;86.44;100952.19;5047237;28;20202;-67
2021/07/16 03:21:49;;;;;;;20.70;18.00;;;;;;;18.59;86.39;100963.97;5040459;28;20203;-67
2021/07/16 03:24:16;;;;;;;24.53;16.63;;;;;;;18.58;86.40;100954.16;5033717;28;20223;-67
2021/07/16 03:26:42;;;;;;;23.83;16.03;;;;;;;18.55;86.44;100957.13;5046073;28;20686;-67
2021/07/16 03:29:09;;;;;;;20.53;15.23;;;;;;;18.55;86.51;100964.34;5036823;28;20241;-67
2021/07/16 03:31:35;;;;;;;27.13;16.17;;;;;;;18.53;86.56;100972.59;5046493;28;20564;-66
2021/07/16 03:34:02;;;;;;;22.07;15.50;;;;;;;18.52;86.39;100972.72;5042976;28;20686;-67
2021/07/16 03:36:29;;;;;;;17.50;14.70;;;;;;;18.51;86.69;100979.13;5040719;28;20213;-66
2021/07/16 03:38:56;;;;;;;18.77;14.83;;;;;;;18.48;86.58;100982.09;5041652;28;20206;-66
2021/07/16 03:41:23;;;;;;;22.57;15.63;;;;;;;18.45;86.51;100982.38;5043956;28;20215;-66
2021/07/16 03:43:49;;;;;;;17.97;14.73;;;;;;;18.43;86.64;100984.38;5041780;28;20221;-66
2021/07/16 03:46:16;;;;;;;20.67;14.67;;;;;;;18.41;86.44;100981.81;5036824;28;20251;-66
2021/07/16 03:48:44;;;;;;;24.70;15.30;;;;;;;18.38;86.51;100987.47;5049541;28;20230;-67
2021/07/16 03:51:10;;;;;;;19.90;15.70;;;;;;;18.36;86.55;100979.53;5038067;28;20689;-67
2021/07/16 03:53:37;;;;;;;20.77;14.80;;;;;;;18.36;86.61;100984.06;5036333;28;20206;-66
2021/07/16 03:56:05;;;;;;;20.60;14.60;;;;;;;18.34;86.54;100984.19;5033397;28;20245;-67
2021/07/16 03:58:32;;;;;;;21.30;14.93;;;;;;;18.33;86.78;100981.63;5044699;28;20216;-66
2021/07/16 04:00:58;;;;;;;20.77;14.03;;;;;;;18.31;86.79;100987.16;5049200;28;21719;-66
2021/07/16 04:03:25;;;;;;;22.43;13.90;;;;;;;18.29;86.81;100978.34;5035400;28;20206;-67
2021/07/16 04:05:51;;;;;;;18.30;14.67;;;;;;;18.28;86.94;100981.19;5043544;28;20232;-67
2021/07/16 04:08:19;;;;;;;19.40;15.40;;;;;;;18.28;86.76;100981.19;5043577;28;20240;-67
2021/07/16 04:10:45;;;;;;;18.97;14.37;;;;;;;18.26;86.93;100983.22;5049689;28;20216;-67
2021/07/16 04:13:14;;;;;;;20.37;14.37;;;;;;;18.25;87.14;100984.19;5044143;28;20205;-67
2021/07/16 04:15:42;;;;;;;24.87;14.70;;;;;;;18.23;87.02;100984.34;5039050;28;20237;-67
2021/07/16 04:18:10;;;;;;;24.40;15.37;;;;;;;18.22;86.97;100981.78;5051707;28;20206;-66
2021/07/16 04:20:39;;;;;;;25.53;15.40;;;;;;;18.22;87.04;100981.78;5044484;28;20641;-66
2021/07/16 04:23:06;;;;;;;19.90;14.57;;;;;;;18.19;87.09;100977.50;5045320;28;20220;-66
2021/07/16 04:25:33;;;;;;;19.37;15.27;;;;;;;18.18;87.11;100978.50;5050204;28;20236;-66
2021/07/16 04:28:01;;;;;;;17.70;15.67;;;;;;;18.17;87.09;100981.31;5036400;28;20207;-66
2021/07/16 04:30:29;;;;;;;21.93;16.27;;;;;;;18.15;87.07;100980.59;5036424;28;20205;-66
2021/07/16 04:32:58;;;;;;;23.97;16.13;;;;;;;18.14;87.28;100984.28;5039889;28;20218;-65
2021/07/16 04:35:25;;;;;;;24.63;15.73;;;;;;;18.12;87.37;100983.56;5038094;28;20699;-67
2021/07/16 04:37:52;;;;;;;24.77;16.10;;;;;;;18.12;87.38;100983.56;5038552;28;20213;-67
2021/07/16 04:40:20;;;;;;;22.93;15.50;;;;;;;18.11;87.47;100981.84;5038001;28;20592;-66
2021/07/16 04:42:48;;;;;;;18.80;14.73;;;;;;;18.11;87.38;100979.16;5040923;28;20228;-66
2021/07/16 04:45:14;;;;;;;18.40;14.90;;;;;;;18.10;87.38;100977.47;5041766;28;20599;-67
2021/07/16 04:47:42;;;;;;;21.47;15.50;;;;;;;18.09;87.49;100975.78;5037998;28;20690;-66
2021/07/16 04:50:11;;;;;;;24.20;16.90;;;;;;;18.07;87.45;100980.47;5039868;28;20686;-66
2021/07/16 04:52:39;;;;;;;25.17;16.33;;;;;;;18.08;87.56;100982.16;5033451;28;20204;-66
2021/07/16 04:55:06;;;;;;;24.70;16.00;;;;;;;18.07;87.70;100991.25;5038806;28;20235;-65
2021/07/16 04:57:33;;;;;;;30.27;16.40;;;;;;;18.04;87.47;101001.31;5039084;28;20211;-66
2021/07/16 04:59:59;;;;;;;27.80;16.57;;;;;;;18.03;87.46;100994.19;5037361;28;20220;-66
2021/07/16 05:02:26;;;;;;;24.83;17.93;;;;;;;18.02;87.49;101005.13;5031135;28;20209;-66
2021/07/16 05:04:54;;;;;;;27.70;17.90;;;;;;;18.00;87.33;101007.94;5041182;28;20716;-66
2021/07/16 05:07:22;;;;;;;23.67;17.23;;;;;;;18.01;87.42;101008.78;5038398;28;20204;-66
2021/07/16 05:09:48;;;;;;;33.83;20.40;;;;;;;17.99;87.37;101008.94;5039547;28;20300;-66
2021/07/16 05:12:15;;;;;;;35.77;19.23;;;;;;;17.99;87.37;101008.94;5035181;28;20725;-66
2021/07/16 05:14:42;;;;;;;34.63;19.23;;;;;;;17.99;87.25;101010.78;5032190;28;20717;-66
2021/07/16 05:17:09;;;;;;;39.37;21.27;;;;;;;18.00;87.40;101016.03;5032253;28;20213;-66
2021/07/16 05:19:35;;;;;;;32.70;20.23;;;;;;;18.00;87.40;101013.34;5031550;28;20659;-67
2021/07/16 05:22:03;;;;;;;47.10;20.83;;;;;;;18.01;87.26;101025.81;5033245;28;20200;-67
2021/07/16 05:24:30;;;;;;;44.33;21.83;;;;;;;18.02;87.43;101035.63;5036662;28;20725;-66
2021/07/16 05:26:57;;;;;;;38.90;21.63;;;;;;;18.03;87.24;101031.94;5044094;28;20213;-67
2021/07/16 05:29:24;;;;;;;46.87;21.40;;;;;;;18.03;87.19;101025.69;5036992;28;20722;-66
2021/07/16 05:31:51;;;;;;;37.67;21.07;;;;;;;18.03;87.19;101033.78;5033068;28;20236;-67
2021/07/16 05:34:18;;;;;;;43.13;22.53;;;;;;;18.01;86.99;101033.06;5039629;28;20233;-69
2021/07/16 05:36:44;;;;;;;40.87;22.73;;;;;;;18.01;86.98;101036.59;5039741;28;20257;-69
2021/07/16 05:39:12;;;;;;;51.93;22.53;;;;;;;18.02;87.07;101035.63;5049727;28;20689;-67
2021/07/16 05:41:39;;;;;;;50.27;23.27;;;;;;;18.03;87.08;101031.06;5044906;28;20752;-68
2021/07/16 05:44:05;;;;;;;47.90;23.10;;;;;;;18.06;87.15;101028.13;5043041;28;20224;-68
2021/07/16 05:46:32;;;;;;;45.43;22.20;;;;;;;18.07;86.99;101023.59;5046779;28;20564;-68
2021/07/16 05:48:59;;;;;;;46.70;21.13;;;;;;;18.08;86.90;101036.94;5031198;28;20226;-68
2021/07/16 05:51:25;;;;;;;43.30;22.20;;;;;;;18.08;86.78;101036.94;5038089;28;20213;-68
2021/07/16 05:53:52;;;;;;;47.27;22.10;;;;;;;18.10;86.59;101036.75;5031148;28;20685;-68
2021/07/16 05:56:20;;;;;;;50.33;20.57;;;;;;;18.10;86.51;101040.31;5040202;28;20210;-68
2021/07/16 05:58:46;;;;;;;46.70;22.13;;;;;;;18.10;86.29;101034.91;5047642;28;20204;-69
2021/07/16 06:01:13;;;;;;;46.87;21.67;;;;;;;18.13;86.29;101042.72;5043430;28;20297;-68
2021/07/16 06:03:41;;;;;;;41.93;20.97;;;;;;;18.14;86.00;101044.44;5041998;28;20198;-68
2021/07/16 06:06:07;;;;;;;48.70;20.67;;;;;;;18.15;85.98;101043.47;5035113;28;20617;-68
2021/07/16 06:08:34;;;;;;;56.60;21.40;;;;;;;18.15;85.78;101045.31;5040051;28;20205;-67
2021/07/16 06:11:00;;;;;;;44.77;20.80;;;;;;;18.16;85.72;101045.16;5039634;28;20217;-68
2021/07/16 06:13:28;;;;;;;41.80;20.40;;;;;;;18.17;85.58;101054.09;5034977;28;20678;-67
2021/07/16 06:15:55;;;;;;;36.93;19.37;;;;;;;18.18;85.61;101051.28;5039331;28;20234;-68
2021/07/16 06:18:22;;;;;;;40.17;19.73;;;;;;;18.18;85.36;101055.81;5036096;28;20219;-66
2021/07/16 06:20:49;;;;;;;41.70;20.10;;;;;;;18.17;85.25;101056.81;5034898;28;20215;-66
2021/07/16 06:23:16;;;;;;;39.47;20.30;;;;;;;18.17;85.12;101064.88;5032601;28;20284;-68
2021/07/16 06:25:43;;;;;;;40.37;19.47;;;;;;;18.16;84.99;101060.50;5034268;28;20240;-67
2021/07/16 06:28:10;;;;;;;42.40;20.30;;;;;;;18.15;84.99;101067.72;5038324;28;20687;-68
2021/07/16 06:30:38;;;;;;;45.10;20.47;;;;;;;18.17;85.03;101070.28;5042035;28;20224;-68
2021/07/16 06:33:05;;;;;;;35.90;18.93;;;;;;;18.17;84.79;101075.66;5039840;28;20296;-68
2021/07/16 06:35:31;;;;;;;39.60;19.70;;;;;;;18.16;84.71;101077.50;5030040;28;20619;-68
2021/07/16 06:37:58;;;;;;;36.87;20.20;;;;;;;18.16;84.62;101073.97;5031380;28;20217;-68
2021/07/16 06:40:25;;;;;;;45.43;19.57;;;;;;;18.16;84.60;101073.97;5033756;28;20596;-68
2021/07/16 06:42:51;;;;;;;46.87;19.90;;;;;;;18.17;84.48;101086.47;5031902;28;20211;-68
2021/07/16 06:45:18;;;;;;;45.20;20.67;;;;;;;18.16;84.32;101085.59;5039149;28;20236;-68
2021/07/16 06:47:45;;;;;;;43.93;20.00;;;;;;;18.19;84.47;101085.34;5037291;28;20205;-68
2021/07/16 06:50:12;;;;;;;38.67;19.80;;;;;;;18.20;84.35;101083.50;5031055;28;20232;-68
2021/07/16 06:52:39;;;;;;;41.90;20.63;;;;;;;18.22;84.53;101082.38;5027479;28;20214;-68
2021/07/16 06:55:07;;;;;;;41.93;18.67;;;;;;;18.25;84.30;101090.19;5042615;22;20233;-68
2021/07/16 06:57:33;;;;;;;38.57;18.67;;;;;;;18.25;84.07;101090.19;5005725;28;20219;-71
2021/07/16 07:00:00;;;;;;;42.53;19.13;;;;;;;18.28;84.18;101094.44;5005622;28;20215;-72
2021/07/16 07:02:27;;;;;;;35.03;18.37;;;;;;;18.30;84.03;101105.94;5014319;28;20214;-68
2021/07/16 07:04:54;;;;;;;38.27;18.47;;;;;;;18.30;83.90;101104.09;5007197;28;20741;-71
2021/07/16 07:07:21;;;;;;;42.97;18.10;;;;;;;18.32;83.94;101109.34;4993384;28;20585;-71
2021/07/16 07:09:47;;;;;;;43.37;17.27;;;;;;;18.35;83.80;101103.69;4993224;28;20225;-70
2021/07/16 07:12:14;;;;;;;38.80;17.57;;;;;;;18.35;83.66;101109.94;4988664;28;20207;-70
2021/07/16 07:14:41;;;;;;;44.57;18.07;;;;;;;18.35;83.50;101115.34;4989072;28;20718;-70
2021/07/16 07:17:07;;;;;;;40.57;16.57;;;;;;;18.37;83.27;101120.59;4988575;28;20207;-68
2021/07/16 07:19:34;;;;;;;36.30;17.20;;;;;;;18.38;83.32;101122.31;4986892;28;20295;-70
2021/07/16 07:22:02;;;;;;;44.13;17.57;;;;;;;18.38;83.06;101125.00;4988195;28;20214;-68
2021/07/16 07:24:28;;;;;;;42.30;17.60;;;;;;;18.40;83.01;101131.13;4992671;28;20204;-72
2021/07/16 07:26:57;;;;;;;42.10;17.27;;;;;;;18.44;82.94;101129.03;4987789;28;20223;-70
2021/07/16 07:29:23;;;;;;;41.57;16.90;;;;;;;18.45;82.60;101136.13;4986831;28;20319;-71
2021/07/16 07:31:50;;;;;;;34.63;15.80;;;;;;;18.46;82.63;101135.94;4990872;28;20208;-72
2021/07/16 07:34:16;;;;;;;33.97;16.83;;;;;;;18.48;82.41;101138.50;4989373;28;20214;-70
2021/07/16 07:36:45;;;;;;;38.40;16.50;;;;;;;18.49;82.29;101140.22;4987628;28;20709;-70
2021/07/16 07:39:12;;;;;;;34.93;15.80;;;;;;;18.50;82.12;101144.63;4988388;28;21016;-69
2021/07/16 07:41:44;;;;;;;29.43;15.73;;;;;;;18.50;81.77;101140.09;4988838;28;20211;-68
2021/07/16 07:44:11;;;;;;;39.17;16.00;;;;;;;18.49;81.53;101146.47;4987464;28;20751;-69
2021/07/16 07:46:38;;;;;;;35.77;14.97;;;;;;;18.51;81.48;101146.34;4986929;28;20606;-69
2021/07/16 07:49:06;;;;;;;34.53;15.33;;;;;;;18.52;81.45;101148.91;4987904;28;20672;-68
2021/07/16 07:51:33;;;;;;;40.80;15.40;;;;;;;18.53;81.49;101153.31;4987395;28;20218;-69
2021/07/16 07:54:00;;;;;;;33.53;14.83;;;;;;;18.56;81.27;101150.34;4989620;28;20214;-69
2021/07/16 07:56:28;;;;;;;29.60;14.43;;;;;;;18.59;81.08;101146.56;5000462;28;20265;-69
2021/07/16 07:58:54;;;;;;;36.70;15.47;;;;;;;18.62;81.04;101154.38;4994503;28;20210;-71
2021/07/16 08:01:21;;;;;;;34.43;15.47;;;;;;;18.64;81.01;101150.53;4989755;28;20215;-68
2021/07/16 08:03:47;;;;;;;34.80;14.10;;;;;;;18.66;81.04;101143.16;4981308;28;20209;-69
2021/07/16 08:06:14;;;;;;;36.70;14.67;;;;;;;18.69;80.88;101148.28;4989107;28;20235;-69
2021/07/16 08:08:40;;;;;;;32.80;14.77;;;;;;;18.72;80.54;101155.25;5004268;28;20211;-71
2021/07/16 08:11:07;;;;;;;33.00;14.97;;;;;;;18.73;80.52;101143.47;5002725;28;20239;-69
2021/07/16 08:13:35;;;;;;;31.13;15.27;;;;;;;18.76;80.22;101158.53;5005543;28;20677;-69
2021/07/16 08:16:02;;;;;;;32.40;15.00;;;;;;;18.77;80.09;101165.66;4996090;28;20219;-69
2021/07/16 08:18:28;;;;;;;37.17;15.10;;;;;;;18.79;80.08;101156.44;5002819;28;20629;-69
2021/07/16 08:20:55;;;;;;;34.07;14.90;;;;;;;18.82;79.83;101153.44;4991313;28;20665;-69
2021/07/16 08:23:21;;;;;;;33.37;14.90;;;;;;;18.83;79.87;101163.22;5000719;28;20208;-70
2021/07/16 08:25:48;;;;;;;37.50;15.93;;;;;;;18.84;79.49;101166.78;5001017;28;20235;-68
2021/07/16 08:28:14;;;;;;;31.60;14.80;;;;;;;18.87;79.18;101166.50;5001537;28;20216;-69
2021/07/16 08:30:42;;;;;;;28.73;15.43;;;;;;;18.89;79.20;101165.38;4998740;28;20733;-69
2021/07/16 08:33:09;;;;;;;33.37;16.40;;;;;;;18.92;79.13;101169.66;5005415;28;20215;-70
2021/07/16 08:35:35;;;;;;;27.77;14.83;;;;;;;18.95;79.00;101172.09;4998446;28;20230;-68
2021/07/16 08:38:05;;;;;;;28.00;15.13;;;;;;;18.99;78.63;101168.94;5000557;28;20223;-69
2021/07/16 08:40:33;;;;;;;22.07;13.70;;;;;;;19.02;78.59;101165.13;4999197;28;20262;-69
2021/07/16 08:43:00;;;;;;;29.47;14.10;;;;;;;19.04;78.41;101174.81;4992646;28;20216;-69
2021/07/16 08:45:27;;;;;;;24.23;13.27;;;;;;;19.06;78.34;101170.13;4995315;28;20235;-68
2021/07/16 08:47:55;;;;;;;24.80;13.97;;;;;;;19.10;78.26;101178.81;4993445;28;20216;-70
2021/07/16 08:50:23;;;;;;;24.30;13.97;;;;;;;19.13;77.99;101178.53;4995110;28;20613;-69
2021/07/16 08:52:50;;;;;;;23.67;13.47;;;;;;;19.16;77.85;101178.25;4994670;28;20295;-69
2021/07/16 08:55:18;;;;;;;26.57;13.90;;;;;;;19.22;78.06;101188.47;4990731;28;20231;-69
2021/07/16 08:57:45;;;;;;;24.57;13.20;;;;;;;19.28;77.97;101178.97;4997844;28;20200;-70
2021/07/16 09:00:14;;;;;;;27.90;13.80;;;;;;;19.33;77.49;101188.38;4995431;28;20208;-69
2021/07/16 09:02:51;;;;;;;24.73;13.57;;;;;;;19.36;77.30;101188.06;4994241;28;20206;-70
2021/07/16 09:05:19;;;;;;;25.40;13.27;;;;;;;19.38;76.92;101177.13;4996763;28;20223;-69
2021/07/16 09:07:49;;;;;;;26.17;13.33;;;;;;;19.41;76.92;101185.78;4992161;28;20216;-70
2021/07/16 09:10:20;;;;;;;21.63;12.50;;;;;;;19.47;76.87;101187.09;4992634;28;20722;-70
2021/07/16 09:12:47;;;;;;;20.50;12.27;;;;;;;19.54;76.79;101182.84;4993501;28;20741;-71
2021/07/16 09:15:16;;;;;;;27.50;13.67;;;;;;;19.60;76.39;101186.84;4990718;28;20745;-70
2021/07/16 09:17:45;;;;;;;21.10;11.20;;;;;;;19.62;76.21;101180.28;4991917;28;20208;-70
2021/07/16 09:20:25;;;;;;;19.70;12.07;;;;;;;19.64;75.92;101183.72;5001522;28;20257;-70
2021/07/16 09:23:11;;;;;;;30.30;12.70;;;;;;;19.70;75.92;101176.91;4997496;28;20209;-70
2021/07/16 09:25:39;;;;;;;26.17;13.43;;;;;;;19.72;75.64;101183.84;4998877;28;20230;-70
2021/07/16 09:28:06;;;;;;;27.43;13.60;;;;;;;19.77;75.42;101188.81;4993011;28;20211;-69
2021/07/16 09:30:33;;;;;;;31.67;13.60;;;;;;;19.79;75.31;101194.94;4992869;28;20230;-70
2021/07/16 09:33:03;;;;;;;26.97;12.83;;;;;;;19.83;74.91;101201.78;4991851;28;20209;-69
2021/07/16 09:35:32;;;;;;;21.73;13.40;;;;;;;19.86;75.06;101203.34;4992740;28;20235;-70
2021/07/16 09:38:03;;;;;;;25.23;12.63;;;;;;;19.91;74.84;101204.59;4998908;28;20570;-71
2021/07/16 09:40:32;;;;;;;30.63;13.60;;;;;;;19.95;74.38;101202.47;4997381;28;20202;-70
2021/07/16 09:43:02;;;;;;;36.43;14.70;;;;;;;19.98;74.27;101196.78;4991975;28;20210;-70
2021/07/16 09:45:29;;;;;;;29.67;13.03;;;;;;;20.00;74.11;101184.81;4988218;28;20231;-71
2021/07/16 09:47:56;;;;;;;26.60;13.53;;;;;;;20.03;74.12;101186.38;4988483;28;20696;-69
2021/07/16 09:50:25;;;;;;;35.03;13.50;;;;;;;20.06;74.20;101181.50;4997446;28;20252;-69
2021/07/16 09:53:13;;;;;;;29.47;13.10;;;;;;;20.16;74.22;101191.47;4994058;28;20203;-70
2021/07/16 09:55:41;;;;;;;30.13;12.43;;;;;;;20.26;74.05;101185.03;5002810;28;20505;-69
2021/07/16 09:58:23;;;;;;;28.37;12.40;;;;;;;20.34;73.75;101192.41;5000049;28;20213;-70
2021/07/16 10:00:51;;;;;;;34.47;11.80;;;;;;;20.40;73.36;101197.28;4997273;28;20208;-69
2021/07/16 10:03:19;;;;;;;29.07;12.63;;;;;;;20.43;72.92;101197.81;4999477;28;20215;-68
2021/07/16 10:05:46;;;;;;;25.17;12.33;;;;;;;20.45;72.62;101194.97;4996743;28;20238;-72
2021/07/16 10:08:15;;;;;;;24.83;11.90;;;;;;;20.48;72.31;101189.25;4997597;28;20211;-69
2021/07/16 10:10:42;;;;;;;27.10;12.00;;;;;;;20.51;72.04;101188.97;4991588;28;20234;-70
2021/07/16 10:13:10;;;;;;;19.10;10.20;;;;;;;20.57;72.35;101191.09;4990348;28;20211;-68
2021/07/16 10:15:37;;;;;;;21.00;11.13;;;;;;;20.64;72.09;101185.91;4998674;28;20226;-69
2021/07/16 10:18:05;;;;;;;21.43;11.10;;;;;;;20.71;71.94;101182.47;4993502;28;20201;-70
2021/07/16 10:20:35;;;;;;;16.87;9.70;;;;;;;20.79;71.78;101176.31;4991161;28;20283;-71
2021/07/16 10:23:02;;;;;;;25.80;10.27;;;;;;;20.88;71.41;101182.69;4995613;28;20214;-70
2021/07/16 10:25:31;;;;;;;20.43;10.23;;;;;;;20.96;71.20;101189.03;4993662;28;20228;-71
2021/07/16 10:27:58;;;;;;;23.10;10.27;;;;;;;21.05;70.47;101192.69;4992573;28;20728;-68
2021/07/16 10:30:32;;;;;;;21.93;10.00;;;;;;;21.09;70.34;101196.81;4995625;28;20720;-72
2021/07/16 10:33:00;;;;;;;17.80;9.53;;;;;;;21.14;70.04;101195.34;4997090;28;20215;-70
2021/07/16 10:35:28;;;;;;;24.03;10.27;;;;;;;21.19;69.41;101192.19;4993388;28;20228;-72
2021/07/16 10:37:55;;;;;;;22.10;9.87;;;;;;;21.24;69.37;101200.75;4990753;28;20217;-70
2021/07/16 10:40:39;;;;;;;21.43;10.67;;;;;;;21.28;69.06;101198.59;4991106;28;20213;-70
2021/07/16 10:43:07;;;;;;;21.87;10.07;;;;;;;21.31;68.79;101201.84;4990138;28;20694;-70
2021/07/16 10:45:35;;;;;;;19.73;10.73;;;;;;;21.35;68.67;101192.38;4988166;28;20217;-70
2021/07/16 10:48:15;;;;;;;21.50;9.87;;;;;;;21.38;68.71;101205.63;4990612;28;20241;-69
2021/07/16 10:50:43;;;;;;;24.60;11.03;;;;;;;21.44;68.75;101215.88;4990988;28;21390;-69
2021/07/16 10:53:16;;;;;;;18.13;9.47;;;;;;;21.50;68.37;101208.13;4988245;28;20218;-69
2021/07/16 10:56:06;;;;;;;17.97;10.67;;;;;;;21.53;68.11;101222.19;4989942;28;20327;-69
2021/07/16 10:58:43;;;;;;;17.17;9.23;;;;;;;21.57;67.72;101220.91;4990917;28;20213;-71
2021/07/16 11:01:11;;;;;;;18.53;9.70;;;;;;;21.56;67.44;101223.75;4989155;28;20222;-70
2021/07/16 11:03:40;;;;;;;15.20;9.17;;;;;;;21.56;67.49;101221.91;4989913;28;20206;-69
2021/07/16 11:06:07;;;;;;;16.90;9.17;;;;;;;21.59;67.54;101227.00;4990832;28;20601;-71
2021/07/16 11:08:53;;;;;;;23.87;10.27;;;;;;;21.64;67.44;101226.56;4990367;28;20212;-70
2021/07/16 11:11:24;;;;;;;21.63;9.37;;;;;;;21.66;67.20;101229.97;4990098;28;20266;-73
2021/07/16 11:13:52;;;;;;;19.33;9.23;;;;;;;21.72;67.34;101226.63;4989769;28;20203;-70
2021/07/16 11:16:44;;;;;;;17.50;9.80;;;;;;;21.78;67.18;101223.31;4990377;28;20498;-69